createdAt,value
2019-03-16T00:00:34.491Z,68.99
2019-03-16T00:03:01.914Z,68.97
2019-03-16T00:05:29.415Z,68.96
2019-03-16T00:07:56.894Z,68.97
2019-03-16T00:10:24.300Z,68.89
2019-03-16T00:12:51.807Z,68.95
2019-03-16T00:15:19.211Z,68.73
2019-03-16T00:17:46.684Z,68.31
2019-03-16T00:20:14.153Z,68.24
2019-03-16T00:22:41.557Z,68.13
2019-03-16T00:25:09.049Z,67.87
2019-03-16T00:27:36.509Z,67.91
2019-03-16T00:30:04.676Z,67.77
2019-03-16T00:32:32.095Z,67.72
2019-03-16T00:34:59.503Z,67.74
2019-03-16T00:37:26.888Z,67.99
2019-03-16T00:39:53.906Z,68.21
2019-03-16T00:42:21.351Z,68.37
2019-03-16T00:44:48.766Z,68.66
2019-03-16T00:47:16.572Z,68.68
2019-03-16T00:49:43.981Z,68.96
2019-03-16T00:52:11.371Z,69.09
2019-03-16T00:54:38.839Z,69.13
2019-03-16T00:57:06.263Z,69.36
2019-03-16T00:59:34.692Z,69.44
2019-03-16T01:02:02.204Z,69.43
2019-03-16T01:04:29.640Z,69.06
2019-03-16T01:06:57.153Z,68.86
2019-03-16T01:09:24.568Z,68.49
2019-03-16T01:11:52.064Z,68.40
2019-03-16T01:14:19.456Z,68.16
2019-03-16T01:16:46.948Z,67.95
2019-03-16T01:19:14.344Z,67.72
2019-03-16T01:21:42.351Z,67.71
2019-03-16T01:24:10.078Z,67.68
2019-03-16T01:26:37.530Z,67.91
2019-03-16T01:29:04.982Z,67.70
2019-03-16T01:31:32.464Z,67.59
2019-03-16T01:33:59.850Z,67.61
2019-03-16T01:36:27.453Z,67.44
2019-03-16T01:38:54.392Z,67.35
2019-03-16T01:41:21.855Z,67.43
2019-03-16T01:43:49.250Z,67.46
2019-03-16T01:46:16.674Z,67.38
2019-03-16T01:48:44.128Z,67.47
2019-03-16T01:51:11.610Z,67.36
2019-03-16T01:53:40.068Z,67.18
2019-03-16T01:56:07.811Z,67.03
2019-03-16T01:58:35.202Z,67.01
2019-03-16T02:01:02.662Z,66.89
2019-03-16T02:03:30.082Z,66.68
2019-03-16T02:05:57.966Z,66.63
2019-03-16T02:08:25.557Z,66.70
2019-03-16T02:10:53.175Z,67.01
2019-03-16T02:13:20.560Z,67.12
2019-03-16T02:15:48.411Z,67.08
2019-03-16T02:18:15.816Z,67.31
2019-03-16T02:20:43.539Z,67.94
2019-03-16T02:23:10.930Z,68.46
2019-03-16T02:25:38.376Z,68.94
2019-03-16T02:28:05.900Z,69.36
2019-03-16T02:30:32.899Z,69.77
2019-03-16T02:33:12.868Z,70.04
2019-03-16T02:35:27.706Z,70.45
2019-03-16T02:37:55.218Z,70.85
2019-03-16T02:40:22.641Z,71.18
2019-03-16T02:42:50.037Z,71.51
2019-03-16T02:45:17.439Z,72.06
2019-03-16T02:47:44.848Z,72.40
2019-03-16T02:50:12.309Z,72.59
2019-03-16T02:52:39.729Z,72.88
2019-03-16T02:55:07.134Z,73.29
2019-03-16T02:57:34.611Z,73.57
2019-03-16T03:00:02.061Z,73.80
2019-03-16T03:02:29.003Z,73.65
2019-03-16T03:04:56.447Z,73.29
2019-03-16T03:07:23.863Z,72.95
2019-03-16T03:09:51.272Z,72.45
2019-03-16T03:12:18.740Z,71.94
2019-03-16T03:14:46.136Z,71.49
2019-03-16T03:17:13.536Z,71.10
2019-03-16T03:19:40.945Z,70.85
2019-03-16T03:22:08.401Z,70.74
2019-03-16T03:24:36.005Z,70.73
2019-03-16T03:27:03.422Z,70.83
2019-03-16T03:29:30.903Z,70.56
2019-03-16T03:31:58.321Z,71.09
2019-03-16T03:34:25.820Z,70.96
2019-03-16T03:36:53.259Z,70.90
2019-03-16T03:39:20.754Z,70.77
2019-03-16T03:41:48.901Z,70.47
2019-03-16T03:44:16.397Z,70.50
2019-03-16T03:46:43.816Z,70.84
2019-03-16T03:49:11.211Z,71.07
2019-03-16T03:51:38.608Z,71.11
2019-03-16T03:54:06.034Z,70.99
2019-03-16T03:56:33.454Z,70.95
2019-03-16T03:59:00.877Z,71.02
2019-03-16T04:01:28.344Z,70.97
2019-03-16T04:04:13.630Z,71.02
2019-03-16T04:06:23.167Z,71.00
2019-03-16T04:08:50.791Z,70.90
2019-03-16T04:11:18.267Z,70.84
2019-03-16T04:13:45.734Z,70.88
2019-03-16T04:16:13.156Z,71.24
2019-03-16T04:18:40.664Z,71.05
2019-03-16T04:21:08.047Z,71.07
2019-03-16T04:23:35.906Z,70.80
2019-03-16T04:26:03.310Z,70.77
2019-03-16T04:28:30.785Z,70.60
2019-03-16T04:30:58.291Z,70.46
2019-03-16T04:33:25.599Z,70.26
2019-03-16T04:35:53.023Z,70.31
2019-03-16T04:38:20.452Z,70.12
2019-03-16T04:40:47.874Z,70.24
2019-03-16T04:43:15.404Z,70.28
2019-03-16T04:45:42.811Z,70.29
2019-03-16T04:48:10.238Z,70.12
2019-03-16T04:50:37.639Z,70.27
2019-03-16T04:53:05.042Z,70.37
2019-03-16T04:55:32.441Z,70.47
2019-03-16T04:57:59.859Z,70.57
2019-03-16T05:00:27.508Z,70.47
2019-03-16T05:02:54.980Z,69.93
2019-03-16T05:05:22.402Z,70.58
2019-03-16T05:07:49.839Z,70.41
2019-03-16T05:10:17.239Z,70.23
2019-03-16T05:12:44.738Z,70.00
2019-03-16T05:15:12.172Z,69.66
2019-03-16T05:17:39.647Z,69.79
2019-03-16T05:20:09.754Z,69.93
2019-03-16T05:22:37.220Z,69.96
2019-03-16T05:25:04.610Z,69.97
2019-03-16T05:27:32.006Z,70.11
2019-03-16T05:29:59.410Z,70.34
2019-03-16T05:32:26.822Z,70.54
2019-03-16T05:34:56.723Z,70.31
2019-03-16T05:37:21.770Z,70.13
2019-03-16T05:39:49.264Z,70.29
2019-03-16T05:42:16.709Z,70.42
2019-03-16T05:44:44.137Z,70.41
2019-03-16T05:47:11.591Z,70.59
2019-03-16T05:49:39.003Z,70.80
2019-03-16T05:52:06.564Z,70.94
2019-03-16T05:54:33.973Z,70.58
2019-03-16T05:57:01.425Z,70.71
2019-03-16T05:59:28.839Z,70.48
2019-03-16T06:01:56.244Z,70.65
2019-03-16T06:04:23.651Z,70.72
2019-03-16T06:06:51.053Z,70.81
2019-03-16T06:09:18.601Z,70.63
2019-03-16T06:11:45.987Z,70.63
2019-03-16T06:14:13.398Z,70.57
2019-03-16T06:16:40.835Z,70.78
2019-03-16T06:19:08.516Z,70.62
2019-03-16T06:21:36.848Z,70.37
2019-03-16T06:24:04.852Z,70.17
2019-03-16T06:26:32.260Z,69.48
2019-03-16T06:28:59.667Z,69.15
2019-03-16T06:31:28.135Z,69.36
2019-03-16T06:33:55.618Z,69.33
2019-03-16T06:36:23.469Z,69.04
2019-03-16T06:38:50.816Z,69.40
2019-03-16T06:41:18.203Z,69.99
2019-03-16T06:43:45.623Z,69.76
2019-03-16T06:46:13.040Z,69.00
2019-03-16T06:48:40.481Z,68.70
2019-03-16T06:51:07.953Z,68.93
2019-03-16T06:53:35.369Z,68.43
2019-03-16T06:56:02.815Z,67.97
2019-03-16T06:58:30.250Z,67.43
2019-03-16T07:00:57.761Z,66.73
2019-03-16T07:03:25.218Z,66.53
2019-03-16T07:05:52.608Z,66.13
2019-03-16T07:08:20.101Z,65.93
2019-03-16T07:10:47.492Z,65.95
2019-03-16T07:13:14.954Z,64.79
2019-03-16T07:15:42.521Z,64.33
2019-03-16T07:18:09.935Z,64.24
2019-03-16T07:20:37.353Z,63.88
2019-03-16T07:23:04.848Z,63.37
2019-03-16T07:25:32.352Z,63.09
2019-03-16T07:27:59.907Z,63.18
2019-03-16T07:30:27.596Z,63.19
2019-03-16T07:32:55.067Z,63.53
2019-03-16T07:35:22.468Z,63.03
2019-03-16T07:37:49.850Z,62.71
2019-03-16T07:40:17.283Z,62.21
2019-03-16T07:42:45.181Z,61.86
2019-03-16T07:45:12.585Z,61.54
2019-03-16T07:47:40.088Z,61.17
2019-03-16T07:50:07.644Z,61.10
2019-03-16T07:52:35.010Z,60.69
2019-03-16T07:55:02.527Z,59.35
2019-03-16T07:57:39.476Z,59.17
2019-03-16T07:59:58.217Z,58.51
2019-03-16T08:02:26.156Z,58.54
2019-03-16T08:04:53.951Z,57.47
2019-03-16T08:07:21.467Z,56.91
2019-03-16T08:09:48.951Z,55.63
2019-03-16T08:12:16.372Z,55.38
2019-03-16T08:14:43.785Z,54.82
2019-03-16T08:17:11.201Z,54.23
2019-03-16T08:19:38.871Z,54.49
2019-03-16T08:22:06.276Z,53.71
2019-03-16T08:24:33.873Z,53.18
2019-03-16T08:27:01.445Z,52.81
2019-03-16T08:29:29.783Z,52.73
2019-03-16T08:31:57.212Z,52.73
2019-03-16T08:34:24.635Z,53.07
2019-03-16T08:36:52.142Z,53.31
2019-03-16T08:39:19.201Z,53.30
2019-03-16T08:41:46.194Z,54.14
2019-03-16T08:44:13.631Z,53.71
2019-03-16T08:46:41.105Z,54.10
2019-03-16T08:49:08.499Z,53.78
2019-03-16T08:51:37.546Z,54.62
2019-03-16T08:54:04.951Z,54.73
2019-03-16T08:56:31.990Z,53.75
2019-03-16T08:58:59.404Z,53.24
2019-03-16T09:01:27.194Z,53.66
2019-03-16T09:03:54.168Z,53.43
2019-03-16T09:06:21.821Z,53.31
2019-03-16T09:08:48.969Z,52.78
2019-03-16T09:11:15.915Z,52.92
2019-03-16T09:13:42.928Z,51.79
2019-03-16T09:16:10.076Z,51.26
2019-03-16T09:18:37.022Z,50.81
2019-03-16T09:21:04.476Z,50.38
2019-03-16T09:23:31.944Z,50.28
2019-03-16T09:25:59.437Z,50.28
2019-03-16T09:28:26.860Z,50.80
2019-03-16T09:30:56.426Z,50.72
2019-03-16T09:33:22.014Z,50.49
2019-03-16T09:35:49.433Z,50.63
2019-03-16T09:38:17.962Z,50.25
2019-03-16T09:40:45.446Z,50.05
2019-03-16T09:43:13.471Z,49.78
2019-03-16T09:45:40.877Z,50.06
2019-03-16T09:48:08.280Z,50.05
2019-03-16T09:50:35.732Z,49.00
2019-03-16T09:53:03.268Z,49.01
2019-03-16T09:55:30.693Z,48.66
2019-03-16T09:57:58.160Z,47.55
2019-03-16T10:00:25.557Z,46.62
2019-03-16T10:02:52.994Z,46.79
2019-03-16T10:05:20.470Z,47.07
2019-03-16T10:07:47.881Z,46.98
2019-03-16T10:10:15.404Z,46.59
2019-03-16T10:12:42.929Z,46.80
2019-03-16T10:15:10.384Z,46.90
2019-03-16T10:17:37.810Z,46.78
2019-03-16T10:20:06.127Z,46.10
2019-03-16T10:22:33.530Z,44.78
2019-03-16T10:25:01.496Z,44.85
2019-03-16T10:27:28.906Z,44.63
2019-03-16T10:29:56.354Z,44.71
2019-03-16T10:32:23.820Z,44.89
2019-03-16T10:34:51.261Z,44.50
2019-03-16T10:37:18.699Z,43.76
2019-03-16T10:39:46.125Z,43.39
2019-03-16T10:42:13.080Z,43.29
2019-03-16T10:44:40.618Z,42.73
2019-03-16T10:47:08.082Z,42.75
2019-03-16T10:49:35.543Z,42.48
2019-03-16T10:52:02.931Z,42.36
2019-03-16T10:54:30.343Z,41.61
2019-03-16T10:56:57.766Z,41.34
2019-03-16T10:59:25.177Z,40.48
2019-03-16T11:01:52.574Z,39.47
2019-03-16T11:04:20.646Z,38.93
2019-03-16T11:06:47.809Z,38.08
2019-03-16T11:09:15.214Z,37.65
2019-03-16T11:11:42.164Z,36.83
2019-03-16T11:14:09.780Z,36.37
2019-03-16T11:16:37.643Z,36.21
2019-03-16T11:19:04.690Z,35.86
2019-03-16T11:21:32.094Z,35.06
2019-03-16T11:24:00.072Z,34.79
2019-03-16T11:26:28.433Z,35.13
2019-03-16T11:29:04.513Z,34.97
2019-03-16T11:31:24.237Z,35.06
2019-03-16T11:33:51.647Z,35.83
2019-03-16T11:36:19.083Z,35.13
2019-03-16T11:38:46.498Z,34.60
2019-03-16T11:41:13.918Z,34.51
2019-03-16T11:43:41.514Z,34.84
2019-03-16T11:46:08.944Z,34.10
2019-03-16T11:48:36.564Z,34.00
2019-03-16T11:51:04.045Z,34.14
2019-03-16T11:53:31.450Z,33.71
2019-03-16T11:55:58.845Z,33.55
2019-03-16T11:58:26.275Z,33.44
2019-03-16T12:00:53.680Z,33.36
2019-03-16T12:03:21.127Z,33.05
2019-03-16T12:05:48.568Z,32.86
2019-03-16T12:08:15.985Z,32.42
2019-03-16T12:10:43.410Z,32.68
2019-03-16T12:13:17.198Z,32.47
2019-03-16T12:15:38.422Z,31.91
2019-03-16T12:18:05.855Z,31.99
2019-03-16T12:20:33.271Z,31.91
2019-03-16T12:23:00.656Z,32.15
2019-03-16T12:25:28.103Z,32.73
2019-03-16T12:27:55.561Z,32.36
2019-03-16T12:30:23.037Z,31.34
2019-03-16T12:32:50.514Z,30.71
2019-03-16T12:35:17.919Z,30.76
2019-03-16T12:37:45.337Z,31.00
2019-03-16T12:40:12.767Z,30.44
2019-03-16T12:42:40.183Z,30.27
2019-03-16T12:45:20.621Z,29.90
2019-03-16T12:47:45.498Z,30.58
2019-03-16T12:50:13.210Z,30.34
2019-03-16T12:52:40.612Z,30.52
2019-03-16T12:55:11.696Z,30.23
2019-03-16T12:57:39.086Z,29.69
2019-03-16T13:00:17.909Z,29.01
2019-03-16T13:02:45.365Z,29.04
2019-03-16T13:05:12.777Z,28.64
2019-03-16T13:07:40.379Z,28.53
2019-03-16T13:10:16.746Z,28.56
2019-03-16T13:12:44.332Z,27.38
2019-03-16T13:15:12.196Z,27.73
2019-03-16T13:17:39.577Z,28.31
2019-03-16T13:20:16.494Z,28.77
2019-03-16T13:22:43.996Z,29.00
2019-03-16T13:25:11.509Z,29.42
2019-03-16T13:27:38.947Z,29.37
2019-03-16T13:30:12.546Z,29.15
2019-03-16T13:32:39.948Z,29.17
2019-03-16T13:35:07.349Z,29.74
2019-03-16T13:37:34.778Z,29.87
2019-03-16T13:40:02.210Z,29.85
2019-03-16T13:42:29.810Z,29.21
2019-03-16T13:44:57.307Z,27.09
2019-03-16T13:47:24.765Z,26.34
2019-03-16T13:49:52.227Z,26.26
2019-03-16T13:52:19.864Z,25.58
2019-03-16T13:54:47.323Z,25.72
2019-03-16T13:57:14.735Z,25.59
2019-03-16T13:59:42.176Z,24.69
2019-03-16T14:02:09.625Z,24.72
2019-03-16T14:04:37.132Z,25.07
2019-03-16T14:07:04.658Z,25.27
2019-03-16T14:09:32.897Z,25.22
2019-03-16T14:12:00.311Z,24.25
2019-03-16T14:14:27.867Z,24.34
2019-03-16T14:16:55.302Z,24.47
2019-03-16T14:19:22.846Z,24.63
2019-03-16T14:21:49.818Z,24.14
2019-03-16T14:24:16.754Z,24.80
2019-03-16T14:26:43.723Z,24.87
2019-03-16T14:29:11.143Z,24.58
2019-03-16T14:31:38.245Z,24.91
2019-03-16T14:34:05.487Z,24.67
2019-03-16T14:36:32.457Z,25.11
2019-03-16T14:38:59.437Z,23.69
2019-03-16T14:41:26.676Z,23.84
2019-03-16T14:43:53.831Z,24.20
2019-03-16T14:46:20.782Z,24.55
2019-03-16T14:48:47.758Z,24.77
2019-03-16T14:51:14.706Z,25.13
2019-03-16T14:53:41.687Z,25.50
2019-03-16T14:56:08.623Z,25.19
2019-03-16T14:58:35.609Z,25.48
2019-03-16T15:01:02.583Z,24.49
2019-03-16T15:03:29.531Z,23.93
2019-03-16T15:05:56.487Z,23.87
2019-03-16T15:08:23.698Z,24.21
2019-03-16T15:10:50.683Z,24.89
2019-03-16T15:13:17.632Z,25.65
2019-03-16T15:15:44.703Z,26.52
2019-03-16T15:18:11.683Z,26.88
2019-03-16T15:20:38.631Z,26.90
2019-03-16T15:23:05.759Z,27.46
2019-03-16T15:25:32.698Z,27.73
2019-03-16T15:27:59.706Z,28.05
2019-03-16T15:30:26.655Z,27.99
2019-03-16T15:32:53.602Z,28.52
2019-03-16T15:35:20.957Z,28.83
2019-03-16T15:37:47.908Z,29.00
2019-03-16T15:40:15.321Z,28.66
2019-03-16T15:42:42.725Z,28.50
2019-03-16T15:45:25.323Z,28.07
2019-03-16T15:47:52.335Z,27.94
2019-03-16T15:50:19.285Z,28.74
2019-03-16T15:52:46.732Z,28.99
2019-03-16T15:55:14.126Z,29.13
2019-03-16T15:57:42.763Z,29.25
2019-03-16T16:00:09.884Z,29.54
2019-03-16T16:02:37.303Z,29.19
2019-03-16T16:05:04.841Z,29.00
2019-03-16T16:07:35.217Z,28.70
2019-03-16T16:09:59.897Z,28.63
2019-03-16T16:12:27.364Z,29.31
2019-03-16T16:14:54.795Z,29.41
2019-03-16T16:17:22.187Z,29.22
2019-03-16T16:19:49.803Z,29.17
2019-03-16T16:22:17.349Z,29.44
2019-03-16T16:24:44.733Z,29.89
2019-03-16T16:27:12.153Z,29.78
2019-03-16T16:29:39.654Z,30.03
2019-03-16T16:32:07.093Z,30.18
2019-03-16T16:34:34.551Z,29.58
2019-03-16T16:37:02.023Z,29.76
2019-03-16T16:39:29.429Z,29.85
2019-03-16T16:41:56.827Z,30.59
2019-03-16T16:44:24.370Z,30.42
2019-03-16T16:46:51.761Z,30.32
2019-03-16T16:49:19.248Z,30.27
2019-03-16T16:51:46.662Z,30.43
2019-03-16T16:54:14.086Z,30.37
2019-03-16T16:56:41.568Z,30.04
2019-03-16T16:59:08.965Z,29.86
2019-03-16T17:01:36.453Z,30.07
2019-03-16T17:04:04.054Z,30.29
2019-03-16T17:06:31.311Z,30.63
2019-03-16T17:08:58.897Z,31.56
2019-03-16T17:11:26.562Z,32.09
2019-03-16T17:13:54.060Z,33.18
2019-03-16T17:16:21.558Z,34.36
2019-03-16T17:18:49.013Z,35.41
2019-03-16T17:21:16.533Z,36.89
2019-03-16T17:23:43.932Z,37.92
2019-03-16T17:26:11.378Z,38.80
2019-03-16T17:28:39.859Z,39.25
2019-03-16T17:31:07.404Z,39.63
2019-03-16T17:33:35.154Z,40.09
2019-03-16T17:36:02.610Z,40.59
2019-03-16T17:38:30.011Z,40.69
2019-03-16T17:40:57.672Z,40.85
2019-03-16T17:43:25.130Z,40.89
2019-03-16T17:45:52.522Z,41.19
2019-03-16T17:48:20.005Z,41.40
2019-03-16T17:50:47.510Z,41.78
2019-03-16T17:53:14.924Z,42.13
2019-03-16T17:55:42.399Z,42.43
2019-03-16T17:58:09.799Z,42.95
2019-03-16T18:00:37.231Z,43.29
2019-03-16T18:03:04.841Z,43.64
2019-03-16T18:05:32.233Z,43.85
2019-03-16T18:07:59.673Z,44.06
2019-03-16T18:10:27.077Z,44.12
2019-03-16T18:12:54.603Z,44.39
2019-03-16T18:15:22.029Z,44.59
2019-03-16T18:17:49.436Z,44.82
2019-03-16T18:20:17.899Z,45.21
2019-03-16T18:22:44.411Z,45.64
2019-03-16T18:25:11.990Z,45.80
2019-03-16T18:27:39.402Z,45.92
2019-03-16T18:30:09.556Z,46.43
2019-03-16T18:32:37.000Z,46.76
2019-03-16T18:35:04.408Z,47.13
2019-03-16T18:37:31.828Z,47.37
2019-03-16T18:39:59.328Z,47.78
2019-03-16T18:42:27.905Z,47.70
2019-03-16T18:44:54.158Z,47.66
2019-03-16T18:47:21.638Z,47.87
2019-03-16T18:49:49.930Z,47.59
2019-03-16T18:52:17.340Z,47.35
2019-03-16T18:54:44.946Z,47.35
2019-03-16T18:57:12.349Z,47.69
2019-03-16T18:59:39.853Z,47.90
2019-03-16T19:02:19.898Z,48.01
2019-03-16T19:04:34.897Z,48.20
2019-03-16T19:07:02.323Z,48.23
2019-03-16T19:09:29.825Z,48.59
2019-03-16T19:11:57.231Z,48.70
2019-03-16T19:14:24.643Z,48.97
2019-03-16T19:16:52.104Z,49.07
2019-03-16T19:19:19.512Z,48.90
2019-03-16T19:21:46.922Z,48.85
2019-03-16T19:24:14.337Z,49.03
2019-03-16T19:26:41.760Z,48.69
2019-03-16T19:29:09.256Z,48.91
2019-03-16T19:31:36.760Z,48.89
2019-03-16T19:34:04.355Z,49.12
2019-03-16T19:36:32.867Z,49.01
2019-03-16T19:39:00.303Z,49.19
2019-03-16T19:41:27.926Z,49.13
2019-03-16T19:43:55.407Z,49.44
2019-03-16T19:46:22.856Z,49.48
2019-03-16T19:48:50.416Z,49.27
2019-03-16T19:51:17.982Z,49.33
2019-03-16T19:53:45.437Z,49.73
2019-03-16T19:56:12.873Z,49.74
2019-03-16T19:58:40.269Z,49.77
2019-03-16T20:01:07.811Z,50.12
2019-03-16T20:03:35.283Z,50.78
2019-03-16T20:06:02.669Z,50.59
2019-03-16T20:08:30.129Z,50.64
2019-03-16T20:11:06.507Z,50.71
2019-03-16T20:13:25.200Z,50.88
2019-03-16T20:15:52.727Z,51.21
2019-03-16T20:18:20.143Z,51.43
2019-03-16T20:20:47.682Z,51.63
2019-03-16T20:23:15.071Z,51.88
2019-03-16T20:25:42.484Z,51.95
2019-03-16T20:28:09.945Z,52.13
2019-03-16T20:30:37.373Z,52.52
2019-03-16T20:33:04.979Z,52.56
2019-03-16T20:35:32.374Z,52.66
2019-03-16T20:37:59.890Z,52.85
2019-03-16T20:40:27.289Z,52.90
2019-03-16T20:42:54.698Z,53.10
2019-03-16T20:45:22.255Z,53.17
2019-03-16T20:47:49.602Z,53.03
2019-03-16T20:50:17.022Z,53.04
2019-03-16T20:52:44.429Z,53.16
2019-03-16T20:55:12.011Z,53.27
2019-03-16T20:57:40.306Z,53.22
2019-03-16T21:00:11.412Z,53.49
2019-03-16T21:02:45.122Z,53.54
2019-03-16T21:05:13.545Z,53.72
2019-03-16T21:07:41.060Z,54.05
2019-03-16T21:10:10.347Z,54.02
2019-03-16T21:12:37.814Z,54.61
2019-03-16T21:15:10.001Z,54.61
2019-03-16T21:17:38.190Z,54.70
2019-03-16T21:20:06.922Z,55.00
2019-03-16T21:22:38.948Z,55.05
2019-03-16T21:25:03.315Z,55.03
2019-03-16T21:27:34.970Z,54.89
2019-03-16T21:30:03.391Z,54.98
2019-03-16T21:32:31.639Z,55.25
2019-03-16T21:34:59.992Z,55.30
2019-03-16T21:37:27.699Z,55.24
2019-03-16T21:39:55.299Z,55.18
2019-03-16T21:42:24.460Z,55.12
2019-03-16T21:45:05.222Z,54.91
2019-03-16T21:47:33.325Z,54.77
2019-03-16T21:50:01.494Z,55.14
2019-03-16T21:52:29.289Z,55.79
2019-03-16T21:54:56.840Z,56.14
2019-03-16T21:57:24.380Z,56.25
2019-03-16T21:59:51.681Z,56.70
2019-03-16T22:02:20.327Z,56.69
2019-03-16T22:04:47.807Z,56.56
2019-03-16T22:07:15.211Z,56.50
2019-03-16T22:09:42.657Z,56.38
2019-03-16T22:12:10.099Z,56.44
2019-03-16T22:14:37.556Z,56.32
2019-03-16T22:17:05.035Z,56.60
2019-03-16T22:19:32.439Z,56.79
2019-03-16T22:21:59.843Z,57.11
2019-03-16T22:24:27.269Z,57.38
2019-03-16T22:26:54.854Z,57.64
2019-03-16T22:29:22.378Z,57.58
2019-03-16T22:31:50.595Z,57.55
2019-03-16T22:34:18.030Z,57.53
2019-03-16T22:36:45.439Z,57.75
2019-03-16T22:39:12.905Z,57.80
2019-03-16T22:41:40.319Z,57.31
2019-03-16T22:44:07.883Z,57.75
2019-03-16T22:46:35.380Z,57.22
2019-03-16T22:49:02.842Z,57.78
2019-03-16T22:51:30.379Z,58.39
2019-03-16T22:53:57.819Z,58.75
2019-03-16T22:56:25.429Z,58.96
2019-03-16T22:58:53.088Z,58.85
2019-03-16T23:01:20.505Z,58.62
2019-03-16T23:03:47.962Z,58.72
2019-03-16T23:06:15.417Z,58.45
2019-03-16T23:08:43.342Z,58.44
2019-03-16T23:11:10.979Z,59.05
2019-03-16T23:13:38.369Z,59.42
2019-03-16T23:16:05.834Z,59.87
2019-03-16T23:18:33.304Z,60.20
2019-03-16T23:21:00.733Z,60.36
2019-03-16T23:23:28.505Z,60.46
2019-03-16T23:25:55.897Z,60.11
2019-03-16T23:28:23.409Z,59.29
2019-03-16T23:30:50.850Z,59.31
2019-03-16T23:33:18.246Z,59.13
2019-03-16T23:35:45.708Z,59.35
2019-03-16T23:38:13.202Z,59.08
2019-03-16T23:40:40.730Z,58.61
2019-03-16T23:43:08.126Z,58.55
2019-03-16T23:45:35.515Z,58.99
2019-03-16T23:48:02.987Z,59.14
2019-03-16T23:50:30.509Z,58.85
2019-03-16T23:52:57.900Z,58.97
2019-03-16T23:55:25.312Z,59.28
2019-03-16T23:57:52.734Z,59.54
